sensor_id;sensor_type;location;lat;lon;timestamp;temperature;humidity
814;DHT22;389;48.710;9.392;2023-04-19T00:02:03;11.90;94.70
814;DHT22;389;48.710;9.392;2023-04-19T00:04:29;11.90;94.80
814;DHT22;389;48.710;9.392;2023-04-19T00:06:55;11.90;94.80
814;DHT22;389;48.710;9.392;2023-04-19T00:09:21;11.90;94.90
814;DHT22;389;48.710;9.392;2023-04-19T00:11:46;11.90;95.00
814;DHT22;389;48.710;9.392;2023-04-19T00:14:12;11.90;95.00
814;DHT22;389;48.710;9.392;2023-04-19T00:16:37;11.80;94.90
814;DHT22;389;48.710;9.392;2023-04-19T00:19:03;11.90;95.00
814;DHT22;389;48.710;9.392;2023-04-19T00:21:29;11.90;95.00
814;DHT22;389;48.710;9.392;2023-04-19T00:23:55;11.90;95.00
814;DHT22;389;48.710;9.392;2023-04-19T00:26:21;11.90;95.00
814;DHT22;389;48.710;9.392;2023-04-19T00:28:46;11.90;95.00
814;DHT22;389;48.710;9.392;2023-04-19T00:31:12;11.90;95.00
814;DHT22;389;48.710;9.392;2023-04-19T00:33:37;11.90;95.10
814;DHT22;389;48.710;9.392;2023-04-19T00:36:03;11.90;95.00
814;DHT22;389;48.710;9.392;2023-04-19T00:38:28;11.90;95.00
814;DHT22;389;48.710;9.392;2023-04-19T00:40:54;11.90;95.00
814;DHT22;389;48.710;9.392;2023-04-19T00:43:20;11.80;95.00
814;DHT22;389;48.710;9.392;2023-04-19T00:45:46;11.90;95.10
814;DHT22;389;48.710;9.392;2023-04-19T00:48:13;11.90;95.10
814;DHT22;389;48.710;9.392;2023-04-19T00:50:40;11.90;95.10
814;DHT22;389;48.710;9.392;2023-04-19T00:53:06;11.90;95.10
814;DHT22;389;48.710;9.392;2023-04-19T00:55:32;11.90;95.10
814;DHT22;389;48.710;9.392;2023-04-19T00:57:58;11.90;95.00
814;DHT22;389;48.710;9.392;2023-04-19T01:00:24;11.90;95.00
814;DHT22;389;48.710;9.392;2023-04-19T01:02:49;12.00;95.10
814;DHT22;389;48.710;9.392;2023-04-19T01:05:15;11.90;95.00
814;DHT22;389;48.710;9.392;2023-04-19T01:07:42;11.80;95.00
814;DHT22;389;48.710;9.392;2023-04-19T01:10:07;11.80;95.10
814;DHT22;389;48.710;9.392;2023-04-19T01:12:33;11.80;95.10
814;DHT22;389;48.710;9.392;2023-04-19T01:14:58;11.80;95.20
814;DHT22;389;48.710;9.392;2023-04-19T01:17:25;11.70;95.20
814;DHT22;389;48.710;9.392;2023-04-19T01:19:58;11.70;95.30
814;DHT22;389;48.710;9.392;2023-04-19T01:22:24;11.70;95.30
814;DHT22;389;48.710;9.392;2023-04-19T01:24:50;11.70;95.30
814;DHT22;389;48.710;9.392;2023-04-19T01:27:15;11.80;95.40
814;DHT22;389;48.710;9.392;2023-04-19T01:29:42;11.70;95.30
814;DHT22;389;48.710;9.392;2023-04-19T01:32:08;11.60;95.30
814;DHT22;389;48.710;9.392;2023-04-19T01:34:33;11.70;95.40
814;DHT22;389;48.710;9.392;2023-04-19T01:36:59;11.60;95.30
814;DHT22;389;48.710;9.392;2023-04-19T01:39:25;11.60;95.40
814;DHT22;389;48.710;9.392;2023-04-19T01:41:51;11.70;95.50
814;DHT22;389;48.710;9.392;2023-04-19T01:44:17;11.60;95.40
814;DHT22;389;48.710;9.392;2023-04-19T01:46:42;11.50;95.50
814;DHT22;389;48.710;9.392;2023-04-19T01:49:08;11.50;95.50
814;DHT22;389;48.710;9.392;2023-04-19T01:51:34;11.50;95.60
814;DHT22;389;48.710;9.392;2023-04-19T01:53:59;11.50;95.70
814;DHT22;389;48.710;9.392;2023-04-19T01:56:26;11.50;95.60
814;DHT22;389;48.710;9.392;2023-04-19T01:58:51;11.50;95.70
814;DHT22;389;48.710;9.392;2023-04-19T02:01:17;11.50;95.70
814;DHT22;389;48.710;9.392;2023-04-19T02:03:42;11.40;95.70
814;DHT22;389;48.710;9.392;2023-04-19T02:08:50;11.40;95.80
814;DHT22;389;48.710;9.392;2023-04-19T02:11:16;11.40;95.80
814;DHT22;389;48.710;9.392;2023-04-19T02:13:42;11.40;95.80
814;DHT22;389;48.710;9.392;2023-04-19T02:16:08;11.60;95.90
814;DHT22;389;48.710;9.392;2023-04-19T02:18:34;11.40;95.80
814;DHT22;389;48.710;9.392;2023-04-19T02:21:03;11.40;95.80
814;DHT22;389;48.710;9.392;2023-04-19T02:23:29;11.40;95.80
814;DHT22;389;48.710;9.392;2023-04-19T02:25:55;11.30;95.80
814;DHT22;389;48.710;9.392;2023-04-19T02:28:20;11.40;96.00
814;DHT22;389;48.710;9.392;2023-04-19T02:30:46;11.50;96.00
814;DHT22;389;48.710;9.392;2023-04-19T02:33:12;11.40;95.90
814;DHT22;389;48.710;9.392;2023-04-19T02:35:37;11.40;95.90
814;DHT22;389;48.710;9.392;2023-04-19T02:38:03;11.40;96.00
814;DHT22;389;48.710;9.392;2023-04-19T02:40:29;11.40;96.00
814;DHT22;389;48.710;9.392;2023-04-19T02:42:55;11.30;96.00
814;DHT22;389;48.710;9.392;2023-04-19T02:45:21;11.30;96.00
814;DHT22;389;48.710;9.392;2023-04-19T02:47:46;11.30;96.10
814;DHT22;389;48.710;9.392;2023-04-19T02:50:13;11.30;96.00
814;DHT22;389;48.710;9.392;2023-04-19T02:52:41;11.30;96.20
814;DHT22;389;48.710;9.392;2023-04-19T02:55:07;11.40;96.20
814;DHT22;389;48.710;9.392;2023-04-19T02:57:32;11.20;96.10
814;DHT22;389;48.710;9.392;2023-04-19T02:59:58;11.20;96.20
814;DHT22;389;48.710;9.392;2023-04-19T03:02:24;11.20;96.10
814;DHT22;389;48.710;9.392;2023-04-19T03:04:50;11.20;96.10
814;DHT22;389;48.710;9.392;2023-04-19T03:07:17;11.00;96.10
814;DHT22;389;48.710;9.392;2023-04-19T03:09:43;11.10;96.20
814;DHT22;389;48.710;9.392;2023-04-19T03:12:09;11.00;96.30
814;DHT22;389;48.710;9.392;2023-04-19T03:14:34;11.00;96.70
814;DHT22;389;48.710;9.392;2023-04-19T03:17:05;10.90;96.60
814;DHT22;389;48.710;9.392;2023-04-19T03:19:30;10.80;96.60
814;DHT22;389;48.710;9.392;2023-04-19T03:21:56;10.70;96.70
814;DHT22;389;48.710;9.392;2023-04-19T03:24:29;10.70;96.60
814;DHT22;389;48.710;9.392;2023-04-19T03:26:55;10.60;96.80
814;DHT22;389;48.710;9.392;2023-04-19T03:29:21;10.50;97.00
814;DHT22;389;48.710;9.392;2023-04-19T03:31:47;10.50;97.20
814;DHT22;389;48.710;9.392;2023-04-19T03:34:13;10.40;97.10
814;DHT22;389;48.710;9.392;2023-04-19T03:36:39;10.30;97.20
814;DHT22;389;48.710;9.392;2023-04-19T03:39:05;10.30;97.30
814;DHT22;389;48.710;9.392;2023-04-19T03:41:31;10.20;97.40
814;DHT22;389;48.710;9.392;2023-04-19T03:43:57;10.20;97.40
814;DHT22;389;48.710;9.392;2023-04-19T03:46:23;10.20;97.50
814;DHT22;389;48.710;9.392;2023-04-19T03:48:49;10.10;97.50
814;DHT22;389;48.710;9.392;2023-04-19T03:51:15;10.00;97.70
814;DHT22;389;48.710;9.392;2023-04-19T03:53:44;10.00;97.70
814;DHT22;389;48.710;9.392;2023-04-19T03:56:10;10.00;97.80
814;DHT22;389;48.710;9.392;2023-04-19T03:58:35;9.80;98.30
814;DHT22;389;48.710;9.392;2023-04-19T04:01:01;9.80;98.40
814;DHT22;389;48.710;9.392;2023-04-19T04:03:27;9.70;98.40
814;DHT22;389;48.710;9.392;2023-04-19T04:05:53;9.60;98.40
814;DHT22;389;48.710;9.392;2023-04-19T04:08:18;9.50;98.40
814;DHT22;389;48.710;9.392;2023-04-19T04:10:44;9.40;98.50
814;DHT22;389;48.710;9.392;2023-04-19T04:13:10;9.30;98.60
814;DHT22;389;48.710;9.392;2023-04-19T04:15:35;9.40;99.10
814;DHT22;389;48.710;9.392;2023-04-19T04:18:01;9.30;99.30
814;DHT22;389;48.710;9.392;2023-04-19T04:20:26;9.10;99.30
814;DHT22;389;48.710;9.392;2023-04-19T04:22:52;9.00;99.50
814;DHT22;389;48.710;9.392;2023-04-19T04:25:17;8.90;99.50
814;DHT22;389;48.710;9.392;2023-04-19T04:27:44;8.90;99.50
814;DHT22;389;48.710;9.392;2023-04-19T04:30:10;8.80;99.60
814;DHT22;389;48.710;9.392;2023-04-19T04:32:40;8.70;99.70
814;DHT22;389;48.710;9.392;2023-04-19T04:35:07;8.70;99.80
814;DHT22;389;48.710;9.392;2023-04-19T04:37:34;8.60;99.90
814;DHT22;389;48.710;9.392;2023-04-19T04:40:00;8.60;99.90
814;DHT22;389;48.710;9.392;2023-04-19T04:42:26;8.60;99.90
814;DHT22;389;48.710;9.392;2023-04-19T04:44:52;8.70;99.90
814;DHT22;389;48.710;9.392;2023-04-19T04:47:19;8.50;99.90
814;DHT22;389;48.710;9.392;2023-04-19T04:49:45;8.50;99.90
814;DHT22;389;48.710;9.392;2023-04-19T04:52:11;8.50;99.90
814;DHT22;389;48.710;9.392;2023-04-19T04:54:36;8.60;99.90
814;DHT22;389;48.710;9.392;2023-04-19T04:57:02;8.50;99.90
814;DHT22;389;48.710;9.392;2023-04-19T04:59:28;8.50;99.90
814;DHT22;389;48.710;9.392;2023-04-19T05:01:53;8.50;99.90
814;DHT22;389;48.710;9.392;2023-04-19T05:04:19;8.50;99.90
814;DHT22;389;48.710;9.392;2023-04-19T05:06:45;8.50;99.90
814;DHT22;389;48.710;9.392;2023-04-19T05:09:11;8.60;99.90
814;DHT22;389;48.710;9.392;2023-04-19T05:11:36;8.60;99.90
814;DHT22;389;48.710;9.392;2023-04-19T05:14:02;8.80;99.90
814;DHT22;389;48.710;9.392;2023-04-19T05:16:28;8.90;99.90
814;DHT22;389;48.710;9.392;2023-04-19T05:18:54;9.00;99.90
814;DHT22;389;48.710;9.392;2023-04-19T05:21:20;9.10;99.90
814;DHT22;389;48.710;9.392;2023-04-19T05:23:45;9.30;99.90
814;DHT22;389;48.710;9.392;2023-04-19T05:26:11;9.40;99.90
814;DHT22;389;48.710;9.392;2023-04-19T05:28:40;9.60;99.90
814;DHT22;389;48.710;9.392;2023-04-19T05:31:06;9.70;99.90
814;DHT22;389;48.710;9.392;2023-04-19T05:33:32;9.90;99.90
814;DHT22;389;48.710;9.392;2023-04-19T05:35:58;10.10;99.90
814;DHT22;389;48.710;9.392;2023-04-19T05:38:23;10.20;99.90
814;DHT22;389;48.710;9.392;2023-04-19T05:40:49;10.40;99.90
814;DHT22;389;48.710;9.392;2023-04-19T05:43:14;10.50;99.90
814;DHT22;389;48.710;9.392;2023-04-19T05:45:44;10.60;99.80
814;DHT22;389;48.710;9.392;2023-04-19T05:48:10;10.70;98.30
814;DHT22;389;48.710;9.392;2023-04-19T05:50:35;10.80;98.10
814;DHT22;389;48.710;9.392;2023-04-19T05:53:01;11.00;97.70
814;DHT22;389;48.710;9.392;2023-04-19T05:55:27;11.10;97.50
814;DHT22;389;48.710;9.392;2023-04-19T05:57:53;11.30;97.10
814;DHT22;389;48.710;9.392;2023-04-19T06:00:18;11.50;97.10
814;DHT22;389;48.710;9.392;2023-04-19T06:02:44;11.50;96.50
814;DHT22;389;48.710;9.392;2023-04-19T06:05:10;11.70;96.40
814;DHT22;389;48.710;9.392;2023-04-19T06:07:35;11.80;96.20
814;DHT22;389;48.710;9.392;2023-04-19T06:10:01;11.90;95.90
814;DHT22;389;48.710;9.392;2023-04-19T06:12:27;12.00;95.30
814;DHT22;389;48.710;9.392;2023-04-19T06:14:53;12.10;94.90
814;DHT22;389;48.710;9.392;2023-04-19T06:17:20;12.20;94.80
814;DHT22;389;48.710;9.392;2023-04-19T06:19:50;12.30;94.60
814;DHT22;389;48.710;9.392;2023-04-19T06:22:15;12.50;94.20
814;DHT22;389;48.710;9.392;2023-04-19T06:24:43;12.40;94.10
814;DHT22;389;48.710;9.392;2023-04-19T06:27:09;12.50;94.10
814;DHT22;389;48.710;9.392;2023-04-19T06:29:35;12.50;93.80
814;DHT22;389;48.710;9.392;2023-04-19T06:32:00;12.50;93.40
814;DHT22;389;48.710;9.392;2023-04-19T06:34:26;12.70;93.40
814;DHT22;389;48.710;9.392;2023-04-19T06:36:51;12.60;93.20
814;DHT22;389;48.710;9.392;2023-04-19T06:39:17;12.70;93.30
814;DHT22;389;48.710;9.392;2023-04-19T06:41:42;12.70;93.20
814;DHT22;389;48.710;9.392;2023-04-19T06:44:08;12.70;92.90
814;DHT22;389;48.710;9.392;2023-04-19T06:46:34;12.80;92.90
814;DHT22;389;48.710;9.392;2023-04-19T06:48:59;12.80;92.60
814;DHT22;389;48.710;9.392;2023-04-19T06:51:25;12.90;92.60
814;DHT22;389;48.710;9.392;2023-04-19T06:53:51;12.70;92.40
814;DHT22;389;48.710;9.392;2023-04-19T06:56:16;12.80;92.50
814;DHT22;389;48.710;9.392;2023-04-19T06:58:44;12.80;92.50
814;DHT22;389;48.710;9.392;2023-04-19T07:01:10;12.80;92.40
814;DHT22;389;48.710;9.392;2023-04-19T07:03:38;12.90;92.40
814;DHT22;389;48.710;9.392;2023-04-19T07:06:04;13.00;92.20
814;DHT22;389;48.710;9.392;2023-04-19T07:08:30;13.00;92.00
814;DHT22;389;48.710;9.392;2023-04-19T07:10:55;13.10;92.10
814;DHT22;389;48.710;9.392;2023-04-19T07:13:21;13.30;91.90
814;DHT22;389;48.710;9.392;2023-04-19T07:15:46;13.40;91.80
814;DHT22;389;48.710;9.392;2023-04-19T07:18:12;13.40;91.60
814;DHT22;389;48.710;9.392;2023-04-19T07:20:40;13.50;91.40
814;DHT22;389;48.710;9.392;2023-04-19T07:23:09;13.60;91.30
814;DHT22;389;48.710;9.392;2023-04-19T07:25:35;13.80;91.10
814;DHT22;389;48.710;9.392;2023-04-19T07:28:01;14.00;91.10
814;DHT22;389;48.710;9.392;2023-04-19T07:30:26;14.00;90.80
814;DHT22;389;48.710;9.392;2023-04-19T07:32:52;14.10;90.20
814;DHT22;389;48.710;9.392;2023-04-19T07:35:18;14.30;90.30
814;DHT22;389;48.710;9.392;2023-04-19T07:37:43;14.20;90.20
814;DHT22;389;48.710;9.392;2023-04-19T07:40:09;14.30;90.10
814;DHT22;389;48.710;9.392;2023-04-19T07:42:35;14.30;89.60
814;DHT22;389;48.710;9.392;2023-04-19T07:45:01;14.30;89.40
814;DHT22;389;48.710;9.392;2023-04-19T07:47:27;14.40;89.40
814;DHT22;389;48.710;9.392;2023-04-19T07:49:53;14.50;89.40
814;DHT22;389;48.710;9.392;2023-04-19T07:52:21;14.70;89.10
814;DHT22;389;48.710;9.392;2023-04-19T07:54:46;14.70;88.90
814;DHT22;389;48.710;9.392;2023-04-19T07:57:12;14.80;89.00
814;DHT22;389;48.710;9.392;2023-04-19T07:59:37;14.90;89.00
814;DHT22;389;48.710;9.392;2023-04-19T08:02:03;14.90;88.50
814;DHT22;389;48.710;9.392;2023-04-19T08:04:28;15.10;88.50
814;DHT22;389;48.710;9.392;2023-04-19T08:06:54;15.00;87.50
814;DHT22;389;48.710;9.392;2023-04-19T08:09:20;15.00;87.00
814;DHT22;389;48.710;9.392;2023-04-19T08:11:45;15.10;86.70
814;DHT22;389;48.710;9.392;2023-04-19T08:14:11;15.10;85.70
814;DHT22;389;48.710;9.392;2023-04-19T08:16:36;15.10;85.80
814;DHT22;389;48.710;9.392;2023-04-19T08:19:02;15.10;85.40
814;DHT22;389;48.710;9.392;2023-04-19T08:21:27;15.10;85.30
814;DHT22;389;48.710;9.392;2023-04-19T08:23:53;15.10;85.90
814;DHT22;389;48.710;9.392;2023-04-19T08:26:19;15.20;86.00
814;DHT22;389;48.710;9.392;2023-04-19T08:28:44;15.10;85.30
814;DHT22;389;48.710;9.392;2023-04-19T08:31:10;15.10;85.50
814;DHT22;389;48.710;9.392;2023-04-19T08:33:35;15.10;85.60
814;DHT22;389;48.710;9.392;2023-04-19T08:36:01;15.20;85.40
814;DHT22;389;48.710;9.392;2023-04-19T08:38:27;15.10;85.00
814;DHT22;389;48.710;9.392;2023-04-19T08:40:53;15.00;85.00
814;DHT22;389;48.710;9.392;2023-04-19T08:43:20;15.00;85.60
814;DHT22;389;48.710;9.392;2023-04-19T08:45:47;15.00;84.90
814;DHT22;389;48.710;9.392;2023-04-19T08:48:16;14.90;84.80
814;DHT22;389;48.710;9.392;2023-04-19T08:50:42;14.90;84.60
814;DHT22;389;48.710;9.392;2023-04-19T08:53:10;14.90;84.90
814;DHT22;389;48.710;9.392;2023-04-19T08:55:42;14.90;85.10
814;DHT22;389;48.710;9.392;2023-04-19T08:58:08;15.00;85.50
814;DHT22;389;48.710;9.392;2023-04-19T09:00:37;14.80;85.70
814;DHT22;389;48.710;9.392;2023-04-19T09:03:06;14.90;85.80
814;DHT22;389;48.710;9.392;2023-04-19T09:05:32;14.80;85.90
814;DHT22;389;48.710;9.392;2023-04-19T09:08:20;14.70;85.90
814;DHT22;389;48.710;9.392;2023-04-19T09:10:58;14.70;85.90
814;DHT22;389;48.710;9.392;2023-04-19T09:13:29;14.70;85.70
814;DHT22;389;48.710;9.392;2023-04-19T09:15:55;14.70;85.70
814;DHT22;389;48.710;9.392;2023-04-19T09:18:25;14.70;85.60
814;DHT22;389;48.710;9.392;2023-04-19T09:20:51;14.80;85.30
814;DHT22;389;48.710;9.392;2023-04-19T09:23:25;14.80;85.10
814;DHT22;389;48.710;9.392;2023-04-19T09:25:58;15.10;85.20
814;DHT22;389;48.710;9.392;2023-04-19T09:28:26;15.10;84.20
814;DHT22;389;48.710;9.392;2023-04-19T09:30:52;15.20;83.30
814;DHT22;389;48.710;9.392;2023-04-19T09:33:33;15.40;83.40
814;DHT22;389;48.710;9.392;2023-04-19T09:35:59;15.80;83.10
814;DHT22;389;48.710;9.392;2023-04-19T09:38:25;15.80;80.70
814;DHT22;389;48.710;9.392;2023-04-19T09:40:51;16.10;80.30
814;DHT22;389;48.710;9.392;2023-04-19T09:43:23;16.40;80.10
814;DHT22;389;48.710;9.392;2023-04-19T09:45:52;16.80;80.30
814;DHT22;389;48.710;9.392;2023-04-19T09:48:18;17.10;79.00
814;DHT22;389;48.710;9.392;2023-04-19T09:51:09;17.30;78.50
814;DHT22;389;48.710;9.392;2023-04-19T09:53:37;17.60;77.60
814;DHT22;389;48.710;9.392;2023-04-19T09:56:04;17.70;77.00
814;DHT22;389;48.710;9.392;2023-04-19T09:58:31;17.80;76.20
814;DHT22;389;48.710;9.392;2023-04-19T10:00:57;17.90;75.80
814;DHT22;389;48.710;9.392;2023-04-19T10:03:25;18.00;75.80
814;DHT22;389;48.710;9.392;2023-04-19T10:05:52;17.80;75.80
814;DHT22;389;48.710;9.392;2023-04-19T10:08:18;17.80;75.90
814;DHT22;389;48.710;9.392;2023-04-19T10:10:45;17.60;75.90
814;DHT22;389;48.710;9.392;2023-04-19T10:13:16;17.50;77.00
814;DHT22;389;48.710;9.392;2023-04-19T10:15:42;17.40;77.40
814;DHT22;389;48.710;9.392;2023-04-19T10:18:08;17.10;77.50
814;DHT22;389;48.710;9.392;2023-04-19T10:20:54;17.10;77.30
814;DHT22;389;48.710;9.392;2023-04-19T10:23:21;17.00;77.60
814;DHT22;389;48.710;9.392;2023-04-19T10:25:48;17.20;77.30
814;DHT22;389;48.710;9.392;2023-04-19T10:28:16;17.30;77.10
814;DHT22;389;48.710;9.392;2023-04-19T10:31:01;17.30;76.50
814;DHT22;389;48.710;9.392;2023-04-19T10:33:34;17.40;76.10
814;DHT22;389;48.710;9.392;2023-04-19T10:36:01;17.50;76.00
814;DHT22;389;48.710;9.392;2023-04-19T10:41:01;17.60;75.50
814;DHT22;389;48.710;9.392;2023-04-19T10:43:32;17.50;75.50
814;DHT22;389;48.710;9.392;2023-04-19T10:49:01;17.30;75.40
814;DHT22;389;48.710;9.392;2023-04-19T10:51:34;17.40;76.40
814;DHT22;389;48.710;9.392;2023-04-19T10:54:05;17.20;75.50
814;DHT22;389;48.710;9.392;2023-04-19T11:04:02;16.60;77.30
814;DHT22;389;48.710;9.392;2023-04-19T11:06:28;16.40;77.80
814;DHT22;389;48.710;9.392;2023-04-19T11:08:54;16.30;78.10
814;DHT22;389;48.710;9.392;2023-04-19T11:11:20;16.20;78.10
814;DHT22;389;48.710;9.392;2023-04-19T11:13:49;16.20;78.60
814;DHT22;389;48.710;9.392;2023-04-19T11:16:15;16.20;78.40
814;DHT22;389;48.710;9.392;2023-04-19T11:18:40;16.30;78.90
814;DHT22;389;48.710;9.392;2023-04-19T11:21:06;16.40;78.70
814;DHT22;389;48.710;9.392;2023-04-19T11:23:32;16.40;78.70
814;DHT22;389;48.710;9.392;2023-04-19T11:25:58;16.40;78.80
814;DHT22;389;48.710;9.392;2023-04-19T11:28:23;16.50;78.40
814;DHT22;389;48.710;9.392;2023-04-19T11:30:49;16.50;78.40
814;DHT22;389;48.710;9.392;2023-04-19T11:33:18;16.50;78.60
814;DHT22;389;48.710;9.392;2023-04-19T11:35:48;16.50;79.00
814;DHT22;389;48.710;9.392;2023-04-19T11:38:14;16.50;79.20
814;DHT22;389;48.710;9.392;2023-04-19T11:40:40;16.30;79.30
814;DHT22;389;48.710;9.392;2023-04-19T11:43:05;15.90;80.20
814;DHT22;389;48.710;9.392;2023-04-19T11:45:36;15.70;81.30
814;DHT22;389;48.710;9.392;2023-04-19T11:48:06;15.50;82.30
814;DHT22;389;48.710;9.392;2023-04-19T11:50:35;15.20;83.10
814;DHT22;389;48.710;9.392;2023-04-19T11:53:21;14.90;84.20
814;DHT22;389;48.710;9.392;2023-04-19T11:55:49;14.80;85.10
814;DHT22;389;48.710;9.392;2023-04-19T11:58:30;14.60;85.80
814;DHT22;389;48.710;9.392;2023-04-19T12:01:06;14.50;86.00
814;DHT22;389;48.710;9.392;2023-04-19T12:03:33;14.40;86.80
814;DHT22;389;48.710;9.392;2023-04-19T12:06:01;14.20;87.60
814;DHT22;389;48.710;9.392;2023-04-19T12:11:09;14.10;89.00
814;DHT22;389;48.710;9.392;2023-04-19T12:13:35;13.90;90.10
814;DHT22;389;48.710;9.392;2023-04-19T12:16:01;13.90;90.70
814;DHT22;389;48.710;9.392;2023-04-19T12:18:40;13.70;91.30
814;DHT22;389;48.710;9.392;2023-04-19T12:21:07;13.60;91.50
814;DHT22;389;48.710;9.392;2023-04-19T12:23:33;13.60;92.30
814;DHT22;389;48.710;9.392;2023-04-19T12:26:03;13.50;92.90
814;DHT22;389;48.710;9.392;2023-04-19T12:28:30;13.40;93.60
814;DHT22;389;48.710;9.392;2023-04-19T12:30:55;13.50;94.00
814;DHT22;389;48.710;9.392;2023-04-19T12:33:21;13.30;94.20
814;DHT22;389;48.710;9.392;2023-04-19T12:35:46;13.40;94.70
814;DHT22;389;48.710;9.392;2023-04-19T12:38:12;13.10;94.90
814;DHT22;389;48.710;9.392;2023-04-19T12:40:38;13.00;95.00
814;DHT22;389;48.710;9.392;2023-04-19T12:43:05;12.90;95.50
814;DHT22;389;48.710;9.392;2023-04-19T12:45:32;12.80;95.70
814;DHT22;389;48.710;9.392;2023-04-19T12:47:57;12.70;95.40
814;DHT22;389;48.710;9.392;2023-04-19T12:50:23;12.80;95.60
814;DHT22;389;48.710;9.392;2023-04-19T12:52:49;12.70;95.60
814;DHT22;389;48.710;9.392;2023-04-19T12:55:16;12.80;95.30
814;DHT22;389;48.710;9.392;2023-04-19T12:57:41;12.60;95.70
814;DHT22;389;48.710;9.392;2023-04-19T13:00:08;12.60;95.90
814;DHT22;389;48.710;9.392;2023-04-19T13:02:37;12.50;95.80
814;DHT22;389;48.710;9.392;2023-04-19T13:05:05;12.50;95.70
814;DHT22;389;48.710;9.392;2023-04-19T13:07:31;12.50;95.80
814;DHT22;389;48.710;9.392;2023-04-19T13:09:57;12.40;96.20
814;DHT22;389;48.710;9.392;2023-04-19T13:12:23;12.30;96.00
814;DHT22;389;48.710;9.392;2023-04-19T13:14:49;12.20;96.10
814;DHT22;389;48.710;9.392;2023-04-19T13:17:17;12.10;96.70
814;DHT22;389;48.710;9.392;2023-04-19T13:19:43;12.10;97.00
814;DHT22;389;48.710;9.392;2023-04-19T13:22:08;12.10;97.30
814;DHT22;389;48.710;9.392;2023-04-19T13:24:34;12.10;96.90
814;DHT22;389;48.710;9.392;2023-04-19T13:26:59;12.10;97.00
814;DHT22;389;48.710;9.392;2023-04-19T13:29:26;12.10;96.80
814;DHT22;389;48.710;9.392;2023-04-19T13:31:53;12.20;96.70
814;DHT22;389;48.710;9.392;2023-04-19T13:34:19;12.00;96.40
814;DHT22;389;48.710;9.392;2023-04-19T13:36:45;12.00;96.30
814;DHT22;389;48.710;9.392;2023-04-19T13:39:11;12.00;96.00
814;DHT22;389;48.710;9.392;2023-04-19T13:41:37;11.80;96.10
814;DHT22;389;48.710;9.392;2023-04-19T13:44:02;12.00;96.10
814;DHT22;389;48.710;9.392;2023-04-19T13:46:28;12.00;96.00
814;DHT22;389;48.710;9.392;2023-04-19T13:48:54;12.20;96.00
814;DHT22;389;48.710;9.392;2023-04-19T13:51:19;12.10;96.00
814;DHT22;389;48.710;9.392;2023-04-19T13:53:45;12.20;96.10
814;DHT22;389;48.710;9.392;2023-04-19T13:56:10;12.40;96.10
814;DHT22;389;48.710;9.392;2023-04-19T13:58:36;12.30;95.80
814;DHT22;389;48.710;9.392;2023-04-19T14:01:02;12.50;95.70
814;DHT22;389;48.710;9.392;2023-04-19T14:03:28;12.40;95.20
814;DHT22;389;48.710;9.392;2023-04-19T14:05:54;12.40;95.20
814;DHT22;389;48.710;9.392;2023-04-19T14:08:19;12.40;95.40
814;DHT22;389;48.710;9.392;2023-04-19T14:10:45;12.40;95.40
814;DHT22;389;48.710;9.392;2023-04-19T14:13:11;12.30;95.00
814;DHT22;389;48.710;9.392;2023-04-19T14:15:37;12.30;95.00
814;DHT22;389;48.710;9.392;2023-04-19T14:18:02;12.30;95.00
814;DHT22;389;48.710;9.392;2023-04-19T14:20:28;12.30;95.10
814;DHT22;389;48.710;9.392;2023-04-19T14:22:53;12.30;95.30
814;DHT22;389;48.710;9.392;2023-04-19T14:25:24;12.40;95.50
814;DHT22;389;48.710;9.392;2023-04-19T14:27:50;12.40;95.40
814;DHT22;389;48.710;9.392;2023-04-19T14:30:16;12.50;95.40
814;DHT22;389;48.710;9.392;2023-04-19T14:32:41;12.60;95.40
814;DHT22;389;48.710;9.392;2023-04-19T14:35:07;12.60;95.00
814;DHT22;389;48.710;9.392;2023-04-19T14:37:35;12.60;94.70
814;DHT22;389;48.710;9.392;2023-04-19T14:40:04;12.60;95.10
814;DHT22;389;48.710;9.392;2023-04-19T14:42:31;12.60;95.10
814;DHT22;389;48.710;9.392;2023-04-19T14:44:57;12.70;95.40
814;DHT22;389;48.710;9.392;2023-04-19T14:47:23;12.90;95.60
814;DHT22;389;48.710;9.392;2023-04-19T14:49:48;13.00;95.80
814;DHT22;389;48.710;9.392;2023-04-19T14:52:15;13.10;95.80
814;DHT22;389;48.710;9.392;2023-04-19T14:54:40;13.30;95.90
814;DHT22;389;48.710;9.392;2023-04-19T14:57:06;13.20;95.80
814;DHT22;389;48.710;9.392;2023-04-19T14:59:32;13.30;94.60
814;DHT22;389;48.710;9.392;2023-04-19T15:01:57;13.30;94.20
814;DHT22;389;48.710;9.392;2023-04-19T15:04:23;13.40;94.10
814;DHT22;389;48.710;9.392;2023-04-19T15:06:48;13.40;94.10
814;DHT22;389;48.710;9.392;2023-04-19T15:09:14;13.30;93.50
814;DHT22;389;48.710;9.392;2023-04-19T15:11:40;13.30;93.50
814;DHT22;389;48.710;9.392;2023-04-19T15:14:06;13.30;93.60
814;DHT22;389;48.710;9.392;2023-04-19T15:16:31;13.30;93.70
814;DHT22;389;48.710;9.392;2023-04-19T15:18:57;13.30;93.90
814;DHT22;389;48.710;9.392;2023-04-19T15:21:22;13.30;93.80
814;DHT22;389;48.710;9.392;2023-04-19T15:23:48;13.40;93.70
814;DHT22;389;48.710;9.392;2023-04-19T15:26:14;13.50;93.30
814;DHT22;389;48.710;9.392;2023-04-19T15:28:40;13.80;93.10
814;DHT22;389;48.710;9.392;2023-04-19T15:31:06;13.90;93.00
814;DHT22;389;48.710;9.392;2023-04-19T15:33:34;14.00;92.10
814;DHT22;389;48.710;9.392;2023-04-19T15:36:01;14.30;92.10
814;DHT22;389;48.710;9.392;2023-04-19T15:38:28;14.40;91.80
814;DHT22;389;48.710;9.392;2023-04-19T15:40:55;14.70;91.30
814;DHT22;389;48.710;9.392;2023-04-19T15:43:22;14.80;90.70
814;DHT22;389;48.710;9.392;2023-04-19T15:45:47;14.70;90.40
814;DHT22;389;48.710;9.392;2023-04-19T15:48:13;14.80;90.30
814;DHT22;389;48.710;9.392;2023-04-19T15:50:39;14.80;90.00
814;DHT22;389;48.710;9.392;2023-04-19T15:53:06;14.90;90.00
814;DHT22;389;48.710;9.392;2023-04-19T15:55:32;14.90;89.60
814;DHT22;389;48.710;9.392;2023-04-19T15:57:59;15.00;89.10
814;DHT22;389;48.710;9.392;2023-04-19T16:00:25;15.00;89.20
814;DHT22;389;48.710;9.392;2023-04-19T16:02:51;14.90;89.00
814;DHT22;389;48.710;9.392;2023-04-19T16:05:17;14.80;89.40
814;DHT22;389;48.710;9.392;2023-04-19T16:07:43;14.70;89.70
814;DHT22;389;48.710;9.392;2023-04-19T16:10:09;14.70;90.10
814;DHT22;389;48.710;9.392;2023-04-19T16:12:35;14.70;90.30
814;DHT22;389;48.710;9.392;2023-04-19T16:15:08;14.70;90.30
814;DHT22;389;48.710;9.392;2023-04-19T16:17:35;14.70;90.40
814;DHT22;389;48.710;9.392;2023-04-19T16:20:01;14.60;90.50
814;DHT22;389;48.710;9.392;2023-04-19T16:22:28;14.70;90.50
814;DHT22;389;48.710;9.392;2023-04-19T16:24:54;14.60;90.50
814;DHT22;389;48.710;9.392;2023-04-19T16:27:20;14.60;90.50
814;DHT22;389;48.710;9.392;2023-04-19T16:29:45;14.70;90.50
814;DHT22;389;48.710;9.392;2023-04-19T16:32:11;14.50;90.30
814;DHT22;389;48.710;9.392;2023-04-19T16:34:36;14.50;90.30
814;DHT22;389;48.710;9.392;2023-04-19T16:37:02;14.40;90.20
814;DHT22;389;48.710;9.392;2023-04-19T16:39:27;14.30;90.20
814;DHT22;389;48.710;9.392;2023-04-19T16:41:53;14.20;90.30
814;DHT22;389;48.710;9.392;2023-04-19T16:44:18;14.10;90.80
814;DHT22;389;48.710;9.392;2023-04-19T16:46:44;14.00;91.10
814;DHT22;389;48.710;9.392;2023-04-19T16:49:10;13.90;91.10
814;DHT22;389;48.710;9.392;2023-04-19T16:51:36;13.80;91.10